createdAt,value
2023-10-27T00:01:31.365Z,23.55
2023-10-27T00:03:58.352Z,24.30
2023-10-27T00:06:25.527Z,23.33
2023-10-27T00:08:52.460Z,22.38
2023-10-27T00:11:19.771Z,23.45
2023-10-27T00:13:46.679Z,21.85
2023-10-27T00:16:13.677Z,21.77
2023-10-27T00:18:40.762Z,20.67
2023-10-27T00:21:07.720Z,20.73
2023-10-27T00:23:34.755Z,21.58
2023-10-27T00:26:02.565Z,19.52
2023-10-27T00:28:30.547Z,20.00
2023-10-27T00:30:59.874Z,25.13
2023-10-27T00:33:26.828Z,22.98
2023-10-27T00:35:54.434Z,20.50
2023-10-27T00:38:21.808Z,23.05
2023-10-27T00:40:49.046Z,23.85
2023-10-27T00:43:20.517Z,22.38
2023-10-27T00:45:51.072Z,24.27
2023-10-27T00:48:19.310Z,21.33
2023-10-27T00:50:46.375Z,22.95
2023-10-27T00:53:14.696Z,23.48
2023-10-27T00:55:42.281Z,21.98
2023-10-27T00:58:12.155Z,22.17
2023-10-27T01:00:39.739Z,22.73
2023-10-27T01:03:06.688Z,20.77
2023-10-27T01:05:33.792Z,22.85
2023-10-27T01:08:03.768Z,25.55
2023-10-27T01:10:32.302Z,23.25
2023-10-27T01:12:59.656Z,22.13
2023-10-27T01:15:27.160Z,25.05
2023-10-27T01:17:54.516Z,23.25
2023-10-27T01:20:21.632Z,21.45
2023-10-27T01:22:50.152Z,22.80
2023-10-27T01:25:17.929Z,23.35
2023-10-27T01:27:45.654Z,25.67
2023-10-27T01:30:12.904Z,23.02
2023-10-27T01:32:41.836Z,24.02
2023-10-27T01:35:09.434Z,20.70
2023-10-27T01:37:36.502Z,22.13
2023-10-27T01:40:06.953Z,23.08
2023-10-27T01:42:36.224Z,22.60
2023-10-27T01:45:07.116Z,19.98
2023-10-27T01:47:34.530Z,21.08
2023-10-27T01:50:01.474Z,20.15
2023-10-27T01:52:28.752Z,20.63
2023-10-27T01:54:55.792Z,21.08
2023-10-27T01:57:24.539Z,21.80
2023-10-27T01:59:52.167Z,20.77
2023-10-27T02:02:19.378Z,21.90
2023-10-27T02:04:46.562Z,20.77
2023-10-27T02:07:14.183Z,19.85
2023-10-27T02:09:41.182Z,21.90
2023-10-27T02:12:11.337Z,22.10
2023-10-27T02:14:39.803Z,21.48
2023-10-27T02:17:07.120Z,21.45
2023-10-27T02:19:34.348Z,19.80
2023-10-27T02:22:01.692Z,23.92
2023-10-27T02:24:29.452Z,20.15
2023-10-27T02:26:56.440Z,20.85
2023-10-27T02:29:23.470Z,20.98
2023-10-27T02:31:50.605Z,22.83
2023-10-27T02:34:17.818Z,23.80
2023-10-27T02:36:44.858Z,21.65
2023-10-27T02:39:12.077Z,21.77
2023-10-27T02:41:38.964Z,25.88
2023-10-27T02:44:06.542Z,21.85
2023-10-27T02:46:34.248Z,20.65
2023-10-27T02:49:01.791Z,20.40
2023-10-27T02:51:28.784Z,23.75
2023-10-27T02:53:57.180Z,21.15
2023-10-27T02:56:24.401Z,23.17
2023-10-27T02:58:52.063Z,19.42
2023-10-27T03:01:19.339Z,21.58
2023-10-27T03:03:46.558Z,21.20
2023-10-27T03:06:13.850Z,19.80
2023-10-27T03:08:42.321Z,21.70
2023-10-27T03:11:12.248Z,21.00
2023-10-27T03:13:39.245Z,21.10
2023-10-27T03:16:06.678Z,19.75
2023-10-27T03:18:34.093Z,17.75
2023-10-27T03:21:05.173Z,17.95
2023-10-27T03:23:32.305Z,18.20
2023-10-27T03:26:02.292Z,18.73
2023-10-27T03:28:29.496Z,19.30
2023-10-27T03:30:56.627Z,18.88
2023-10-27T03:33:23.581Z,20.38
2023-10-27T03:35:50.919Z,16.88
2023-10-27T03:38:18.949Z,19.02
2023-10-27T03:40:46.700Z,16.05
2023-10-27T03:43:15.843Z,17.83
2023-10-27T03:45:43.061Z,18.17
2023-10-27T03:48:10.310Z,17.23
2023-10-27T03:50:38.050Z,17.98
2023-10-27T03:53:05.057Z,16.25
2023-10-27T03:55:32.286Z,16.17
2023-10-27T03:58:18.406Z,15.80
2023-10-27T04:00:46.209Z,16.33
2023-10-27T04:03:13.625Z,18.77
2023-10-27T04:05:40.971Z,16.73
2023-10-27T04:08:08.193Z,16.15
2023-10-27T04:10:37.052Z,17.05
2023-10-27T04:13:05.467Z,17.38
2023-10-27T04:15:33.056Z,16.95
2023-10-27T04:18:00.286Z,15.70
2023-10-27T04:20:27.746Z,16.40
2023-10-27T04:22:54.740Z,14.10
2023-10-27T04:25:21.796Z,15.65
2023-10-27T04:27:48.647Z,13.30
2023-10-27T04:30:16.643Z,15.82
2023-10-27T04:32:43.861Z,14.60
2023-10-27T04:35:11.259Z,16.25
2023-10-27T04:37:38.291Z,13.57
2023-10-27T04:40:05.886Z,13.77
2023-10-27T04:42:32.969Z,13.45
2023-10-27T04:45:00.458Z,12.85
2023-10-27T04:47:27.618Z,12.35
2023-10-27T04:49:55.082Z,14.27
2023-10-27T04:52:22.132Z,12.40
2023-10-27T04:54:49.034Z,12.00
2023-10-27T04:57:16.070Z,12.90
2023-10-27T04:59:42.973Z,12.25
2023-10-27T05:02:10.179Z,13.38
2023-10-27T05:04:37.190Z,12.15
2023-10-27T05:07:07.217Z,14.05
2023-10-27T05:09:34.651Z,13.40
2023-10-27T05:12:02.223Z,15.45
2023-10-27T05:14:29.206Z,13.05
2023-10-27T05:16:56.199Z,11.77
2023-10-27T05:19:23.480Z,10.68
2023-10-27T05:21:50.397Z,10.57
2023-10-27T05:24:17.445Z,12.05
2023-10-27T05:26:44.694Z,11.50
2023-10-27T05:29:11.673Z,10.73
2023-10-27T05:31:40.786Z,11.43
2023-10-27T05:34:07.869Z,10.50
2023-10-27T05:36:36.768Z,10.07
2023-10-27T05:39:03.953Z,12.13
2023-10-27T05:41:31.006Z,11.50
2023-10-27T05:43:57.979Z,16.30
2023-10-27T05:46:24.949Z,21.25
2023-10-27T05:48:51.970Z,9.02
2023-10-27T05:51:18.882Z,9.77
2023-10-27T05:53:45.976Z,10.93
2023-10-27T05:56:12.915Z,10.68
2023-10-27T05:58:40.070Z,11.85
2023-10-27T06:01:06.932Z,11.07
2023-10-27T06:03:34.299Z,7.47
2023-10-27T06:06:02.135Z,19.13
2023-10-27T06:08:29.026Z,35.05
2023-10-27T06:10:56.037Z,31.63
2023-10-27T06:13:22.942Z,10.65
2023-10-27T06:15:49.969Z,11.32
2023-10-27T06:18:17.077Z,9.88
2023-10-27T06:20:44.192Z,10.23
2023-10-27T06:23:13.198Z,8.27
2023-10-27T06:25:40.955Z,11.05
2023-10-27T06:28:08.018Z,8.75
2023-10-27T06:30:34.941Z,7.90
2023-10-27T06:33:02.499Z,9.23
2023-10-27T06:35:29.464Z,7.72
2023-10-27T06:37:56.573Z,7.03
2023-10-27T06:40:23.743Z,45.22
2023-10-27T06:42:50.724Z,7.53
2023-10-27T06:45:17.609Z,9.15
2023-10-27T06:47:44.836Z,19.90
2023-10-27T06:50:12.161Z,7.18
2023-10-27T06:52:39.517Z,6.75
2023-10-27T06:55:06.562Z,6.65
2023-10-27T06:57:33.530Z,16.55
2023-10-27T07:00:00.625Z,5.03
2023-10-27T07:02:27.821Z,4.75
2023-10-27T07:04:56.473Z,5.18
2023-10-27T07:07:28.826Z,5.10
2023-10-27T07:09:56.982Z,5.65
2023-10-27T07:12:24.179Z,6.38
2023-10-27T07:14:51.210Z,5.63
2023-10-27T07:17:18.279Z,4.95
2023-10-27T07:19:45.428Z,6.25
2023-10-27T07:22:12.889Z,5.85
2023-10-27T07:24:39.745Z,5.15
2023-10-27T07:27:06.816Z,5.65
2023-10-27T07:29:33.703Z,5.63
2023-10-27T07:32:01.003Z,4.72
2023-10-27T07:34:27.961Z,6.30
2023-10-27T07:36:55.116Z,4.88
2023-10-27T07:39:23.921Z,5.53
2023-10-27T07:41:54.471Z,4.82
2023-10-27T07:44:21.536Z,5.10
2023-10-27T07:46:48.696Z,4.93
2023-10-27T07:49:16.127Z,6.13
2023-10-27T07:51:43.262Z,6.35
2023-10-27T07:54:10.255Z,5.85
2023-10-27T07:56:37.167Z,6.95
2023-10-27T07:59:04.075Z,6.18
2023-10-27T08:01:31.150Z,7.30
2023-10-27T08:03:58.113Z,6.38
2023-10-27T08:06:25.220Z,5.93
2023-10-27T08:08:52.151Z,5.88
2023-10-27T08:11:19.127Z,5.93
2023-10-27T08:13:46.266Z,6.80
2023-10-27T08:16:14.741Z,5.40
2023-10-27T08:18:41.912Z,6.90
2023-10-27T08:21:09.245Z,6.25
2023-10-27T08:23:36.412Z,6.53
2023-10-27T08:26:03.565Z,5.95
2023-10-27T08:28:30.602Z,6.22
2023-10-27T08:30:57.903Z,5.82
2023-10-27T08:33:26.133Z,6.63
2023-10-27T08:35:53.207Z,5.78
2023-10-27T08:38:20.219Z,5.68
2023-10-27T08:40:47.832Z,5.63
2023-10-27T08:43:15.057Z,6.57
2023-10-27T08:45:43.499Z,5.68
2023-10-27T08:48:13.805Z,5.65
2023-10-27T08:50:42.056Z,5.72
2023-10-27T08:53:13.720Z,5.30
2023-10-27T08:55:40.911Z,5.30
2023-10-27T08:58:07.863Z,5.90
2023-10-27T09:00:34.870Z,5.70
2023-10-27T09:03:15.860Z,5.63
2023-10-27T09:05:44.108Z,5.80
2023-10-27T09:08:12.066Z,5.70
2023-10-27T09:10:39.504Z,5.38
2023-10-27T09:13:06.760Z,5.90
2023-10-27T09:15:46.863Z,8.77
2023-10-27T09:18:15.155Z,6.22
2023-10-27T09:20:52.744Z,6.13
2023-10-27T09:23:21.487Z,4.63
2023-10-27T09:25:48.833Z,4.90
2023-10-27T09:28:16.130Z,4.88
2023-10-27T09:30:44.325Z,5.28
2023-10-27T09:33:20.343Z,4.78
2023-10-27T09:35:48.268Z,4.57
2023-10-27T09:38:18.397Z,3.88
2023-10-27T09:40:47.398Z,5.22
2023-10-27T09:43:20.830Z,5.22
2023-10-27T09:45:56.402Z,5.65
2023-10-27T09:48:29.261Z,4.95
2023-10-27T09:51:18.951Z,4.15
2023-10-27T09:53:48.545Z,4.28
2023-10-27T09:56:16.044Z,4.47
2023-10-27T09:58:43.288Z,3.92
2023-10-27T10:01:11.311Z,3.70
2023-10-27T10:03:42.547Z,4.93
2023-10-27T10:06:19.323Z,4.22
2023-10-27T10:09:07.586Z,4.82
2023-10-27T10:11:55.603Z,4.22
2023-10-27T10:14:38.060Z,4.55
2023-10-27T10:17:05.728Z,4.57
2023-10-27T10:19:52.185Z,4.03
2023-10-27T10:22:41.312Z,4.75
2023-10-27T10:25:24.168Z,4.55
2023-10-27T10:28:13.034Z,3.75
2023-10-27T10:30:45.074Z,4.75
2023-10-27T10:33:18.388Z,4.30
2023-10-27T10:35:49.351Z,4.57
2023-10-27T10:38:25.294Z,4.57
2023-10-27T10:40:56.912Z,4.43
2023-10-27T10:43:42.484Z,4.32
2023-10-27T10:46:13.954Z,4.50
2023-10-27T10:48:42.420Z,3.40
2023-10-27T10:51:20.659Z,4.28
2023-10-27T10:53:55.144Z,3.85
2023-10-27T10:56:23.217Z,8.10
2023-10-27T10:58:50.364Z,5.30
2023-10-27T11:01:18.859Z,4.05
2023-10-27T11:03:51.670Z,3.55
2023-10-27T11:06:23.562Z,2.65
2023-10-27T11:08:51.071Z,3.13
2023-10-27T11:11:19.034Z,3.63
2023-10-27T11:13:51.877Z,3.42
2023-10-27T11:16:23.684Z,3.53
2023-10-27T11:18:53.901Z,4.25
2023-10-27T11:21:23.102Z,3.58
2023-10-27T11:23:51.245Z,3.63
2023-10-27T11:26:20.615Z,3.75
2023-10-27T11:28:48.129Z,3.97
2023-10-27T11:31:24.566Z,3.80
2023-10-27T11:34:02.733Z,3.25
2023-10-27T11:36:41.253Z,3.47
2023-10-27T11:39:24.772Z,2.80
2023-10-27T11:41:54.666Z,2.85
2023-10-27T11:44:22.268Z,3.45
2023-10-27T11:46:50.882Z,3.03
2023-10-27T11:49:18.533Z,2.90
2023-10-27T11:51:46.607Z,3.85
2023-10-27T11:54:14.096Z,3.13
2023-10-27T11:56:40.952Z,2.97
2023-10-27T11:59:08.896Z,2.75
2023-10-27T12:01:35.877Z,2.35
2023-10-27T12:04:03.301Z,2.78
2023-10-27T12:06:31.578Z,2.83
2023-10-27T12:08:58.625Z,3.05
2023-10-27T12:11:25.608Z,2.50
2023-10-27T12:13:52.528Z,5.28
2023-10-27T12:16:19.601Z,3.63
2023-10-27T12:18:46.516Z,2.78
2023-10-27T12:21:13.848Z,2.25
2023-10-27T12:23:40.787Z,3.50
2023-10-27T12:26:09.218Z,2.65
2023-10-27T12:28:36.907Z,2.60
2023-10-27T12:31:04.756Z,2.25
2023-10-27T12:33:31.719Z,2.15
2023-10-27T12:35:58.768Z,1.77
2023-10-27T12:38:25.740Z,2.00
2023-10-27T12:40:52.835Z,2.22
2023-10-27T12:43:20.903Z,2.30
2023-10-27T12:45:48.556Z,2.80
2023-10-27T12:48:15.550Z,20.25
2023-10-27T12:50:43.054Z,2.42
2023-10-27T12:53:09.984Z,3.08
2023-10-27T12:55:37.077Z,2.90
2023-10-27T12:58:10.217Z,2.72
2023-10-27T13:00:37.516Z,12.80
2023-10-27T13:03:05.694Z,3.40
2023-10-27T13:05:32.877Z,2.50
2023-10-27T13:08:00.033Z,2.42
2023-10-27T13:10:27.314Z,2.78
2023-10-27T13:13:01.720Z,5.00
2023-10-27T13:15:30.433Z,2.00
2023-10-27T13:17:57.464Z,2.85
2023-10-27T13:20:24.433Z,2.78
2023-10-27T13:22:51.474Z,2.83
2023-10-27T13:25:18.696Z,2.75
2023-10-27T13:27:46.523Z,2.03
2023-10-27T13:30:15.355Z,2.60
2023-10-27T13:32:45.181Z,2.97
2023-10-27T13:35:13.381Z,2.50
2023-10-27T13:37:40.447Z,3.22
2023-10-27T13:40:09.501Z,3.90
2023-10-27T13:42:37.694Z,3.67
2023-10-27T13:45:04.991Z,2.85
2023-10-27T13:47:33.120Z,3.58
2023-10-27T13:50:00.129Z,2.85
2023-10-27T13:52:27.249Z,4.20
2023-10-27T13:54:54.480Z,2.35
2023-10-27T13:57:22.799Z,2.58
2023-10-27T13:59:49.872Z,1.60
2023-10-27T14:02:16.954Z,1.83
2023-10-27T14:04:44.140Z,2.10
2023-10-27T14:07:11.282Z,2.53
2023-10-27T14:09:38.348Z,1.90
2023-10-27T14:12:06.032Z,2.65
2023-10-27T14:14:32.972Z,2.88
2023-10-27T14:17:01.490Z,3.17
2023-10-27T14:19:29.934Z,2.60
2023-10-27T14:21:58.314Z,16.17
2023-10-27T14:24:25.398Z,20.60
2023-10-27T14:26:53.405Z,3.00
2023-10-27T14:29:20.497Z,3.20
2023-10-27T14:31:47.738Z,4.10
2023-10-27T14:34:14.987Z,4.32
2023-10-27T14:36:41.960Z,5.43
2023-10-27T14:39:09.193Z,3.30
2023-10-27T14:41:36.135Z,3.40
2023-10-27T14:44:03.352Z,3.90
2023-10-27T14:46:33.117Z,3.83
2023-10-27T14:49:01.470Z,3.58
2023-10-27T14:51:28.817Z,3.28
2023-10-27T14:53:56.301Z,4.97
2023-10-27T14:56:23.257Z,4.22
2023-10-27T14:58:54.647Z,3.97
2023-10-27T15:01:26.257Z,3.65
2023-10-27T15:03:54.324Z,3.30
2023-10-27T15:06:21.465Z,4.07
2023-10-27T15:08:48.505Z,5.50
2023-10-27T15:11:15.581Z,5.95
2023-10-27T15:13:42.767Z,6.47
2023-10-27T15:16:11.933Z,13.63
2023-10-27T15:18:39.652Z,3.72
2023-10-27T15:21:19.197Z,7.80
2023-10-27T15:23:49.919Z,3.92
2023-10-27T15:26:18.984Z,3.72
2023-10-27T15:28:48.493Z,4.20
2023-10-27T15:31:16.236Z,4.78
2023-10-27T15:33:44.143Z,4.97
2023-10-27T15:36:13.526Z,26.05
2023-10-27T15:38:44.259Z,5.20
2023-10-27T15:41:33.963Z,3.55
2023-10-27T15:44:01.357Z,7.57
2023-10-27T15:46:34.742Z,12.93
2023-10-27T15:49:02.687Z,5.28
2023-10-27T15:51:29.718Z,5.00
2023-10-27T15:54:01.292Z,4.60
2023-10-27T15:56:28.692Z,4.82
2023-10-27T15:58:57.330Z,5.00
2023-10-27T16:01:25.037Z,5.50
2023-10-27T16:03:52.741Z,5.68
2023-10-27T16:06:20.991Z,6.63
2023-10-27T16:08:47.961Z,5.70
2023-10-27T16:11:15.581Z,6.38
2023-10-27T16:13:44.162Z,4.88
2023-10-27T16:16:12.138Z,5.60
2023-10-27T16:18:39.306Z,4.45
2023-10-27T16:21:06.393Z,3.10
2023-10-27T16:23:33.480Z,2.65
2023-10-27T16:26:05.438Z,2.20
2023-10-27T16:28:33.288Z,2.72
2023-10-27T16:31:04.187Z,5.60
2023-10-27T16:33:32.937Z,4.30
2023-10-27T16:36:04.080Z,3.33
2023-10-27T16:38:31.327Z,2.65
2023-10-27T16:40:58.789Z,2.83
2023-10-27T16:43:26.309Z,2.60
2023-10-27T16:45:53.589Z,2.95
2023-10-27T16:48:20.608Z,3.05
2023-10-27T16:50:48.027Z,3.15
2023-10-27T16:53:15.018Z,3.08
2023-10-27T16:55:41.900Z,3.05
2023-10-27T16:58:08.956Z,3.30
2023-10-27T17:00:35.979Z,3.42
2023-10-27T17:03:04.053Z,3.08
2023-10-27T17:05:31.164Z,3.95
2023-10-27T17:07:59.076Z,4.53
2023-10-27T17:10:26.223Z,3.45
2023-10-27T17:12:53.454Z,4.65
2023-10-27T17:15:20.511Z,4.40
2023-10-27T17:17:47.866Z,15.60
2023-10-27T17:20:17.686Z,5.25
2023-10-27T17:22:46.452Z,3.78
2023-10-27T17:25:13.862Z,4.53
2023-10-27T17:27:40.927Z,5.55
2023-10-27T17:30:11.172Z,4.90
2023-10-27T17:32:42.020Z,5.95
2023-10-27T17:35:09.306Z,5.15
2023-10-27T17:37:36.417Z,4.45
2023-10-27T17:40:03.744Z,6.10
2023-10-27T17:42:34.550Z,6.97
2023-10-27T17:45:01.960Z,6.93
2023-10-27T17:47:29.290Z,6.03
2023-10-27T17:49:58.003Z,5.82
2023-10-27T17:52:25.345Z,6.22
2023-10-27T17:54:52.682Z,5.50
2023-10-27T17:57:21.064Z,6.35
2023-10-27T17:59:48.211Z,6.00
2023-10-27T18:02:15.039Z,6.20
2023-10-27T18:04:42.250Z,5.95
2023-10-27T18:07:10.218Z,5.95
2023-10-27T18:09:38.045Z,7.47
2023-10-27T18:12:06.918Z,7.57
2023-10-27T18:14:33.973Z,8.70
2023-10-27T18:17:02.157Z,9.68
2023-10-27T18:19:29.142Z,9.35
2023-10-27T18:21:57.323Z,7.88
2023-10-27T18:24:24.454Z,7.75
2023-10-27T18:26:51.441Z,6.40
2023-10-27T18:29:18.540Z,7.30
2023-10-27T18:31:49.000Z,6.85
2023-10-27T18:34:16.463Z,6.78
2023-10-27T18:36:44.299Z,6.50
2023-10-27T18:39:11.704Z,5.85
2023-10-27T18:41:39.748Z,6.68
2023-10-27T18:44:08.748Z,5.70
2023-10-27T18:46:35.782Z,5.38
2023-10-27T18:49:03.192Z,6.03
2023-10-27T18:51:30.238Z,5.55
2023-10-27T18:53:57.370Z,4.88
2023-10-27T18:56:24.803Z,5.45
2023-10-27T18:58:51.901Z,5.25
2023-10-27T19:01:19.235Z,5.97
2023-10-27T19:03:48.350Z,6.47
2023-10-27T19:06:16.635Z,5.82
2023-10-27T19:08:45.222Z,5.50
2023-10-27T19:11:14.640Z,6.85
2023-10-27T19:13:44.012Z,6.90
2023-10-27T19:16:12.192Z,6.60
2023-10-27T19:18:40.755Z,7.53
2023-10-27T19:21:13.694Z,7.78
2023-10-27T19:23:43.686Z,7.35
2023-10-27T19:26:18.953Z,8.13
2023-10-27T19:28:47.699Z,7.78
2023-10-27T19:31:19.687Z,6.97
2023-10-27T19:33:50.734Z,8.82
2023-10-27T19:36:18.966Z,7.03
2023-10-27T19:38:46.048Z,7.75
2023-10-27T19:41:13.024Z,7.78
2023-10-27T19:43:41.204Z,8.05
2023-10-27T19:46:09.728Z,7.60
2023-10-27T19:48:37.655Z,7.97
2023-10-27T19:51:06.074Z,7.88
2023-10-27T19:53:33.709Z,7.60
2023-10-27T19:56:01.663Z,6.68
2023-10-27T19:58:28.909Z,6.47
2023-10-27T20:00:56.066Z,7.22
2023-10-27T20:03:23.247Z,6.45
2023-10-27T20:05:52.314Z,7.03
2023-10-27T20:08:19.596Z,7.25
2023-10-27T20:10:50.158Z,6.70
2023-10-27T20:13:17.426Z,6.50
2023-10-27T20:15:46.125Z,7.15
2023-10-27T20:18:13.447Z,7.60
2023-10-27T20:20:45.797Z,9.60
2023-10-27T20:23:14.350Z,6.50
2023-10-27T20:25:41.867Z,8.02
2023-10-27T20:28:09.087Z,6.78
2023-10-27T20:30:36.887Z,7.45
2023-10-27T20:33:04.028Z,8.45
2023-10-27T20:35:31.108Z,8.38
2023-10-27T20:37:59.886Z,7.30
2023-10-27T20:40:27.291Z,10.75
2023-10-27T20:42:56.664Z,8.20
2023-10-27T20:45:24.166Z,7.93
2023-10-27T20:47:52.052Z,8.68
2023-10-27T20:50:22.248Z,10.68
2023-10-27T20:52:49.234Z,7.85
2023-10-27T20:55:19.821Z,7.63
2023-10-27T20:57:47.599Z,7.45
2023-10-27T21:00:19.259Z,7.95
2023-10-27T21:02:46.272Z,8.18
2023-10-27T21:05:13.388Z,6.97
2023-10-27T21:07:40.888Z,6.68
2023-10-27T21:10:08.570Z,6.68
2023-10-27T21:12:35.579Z,6.38
2023-10-27T21:15:06.617Z,7.20
2023-10-27T21:17:34.680Z,7.35
2023-10-27T21:20:01.788Z,7.40
2023-10-27T21:22:31.789Z,6.93
2023-10-27T21:24:58.911Z,7.70
2023-10-27T21:27:25.850Z,5.75
2023-10-27T21:29:55.724Z,7.90
2023-10-27T21:32:22.770Z,7.75
2023-10-27T21:34:50.109Z,7.82
2023-10-27T21:37:17.242Z,7.70
2023-10-27T21:39:53.535Z,7.43
2023-10-27T21:42:20.855Z,7.00
2023-10-27T21:44:48.443Z,8.30
2023-10-27T21:47:15.939Z,6.90
2023-10-27T21:49:46.557Z,6.40
2023-10-27T21:52:14.631Z,7.78
2023-10-27T21:54:41.710Z,7.88
2023-10-27T21:57:10.420Z,6.30
2023-10-27T21:59:40.160Z,7.32
2023-10-27T22:02:07.573Z,6.72
2023-10-27T22:04:35.936Z,6.82
2023-10-27T22:07:03.270Z,5.70
2023-10-27T22:09:30.190Z,7.07
2023-10-27T22:11:57.260Z,6.97
2023-10-27T22:14:24.272Z,6.40
2023-10-27T22:16:52.541Z,6.03
2023-10-27T22:19:20.274Z,6.40
2023-10-27T22:21:48.968Z,6.10
2023-10-27T22:24:16.082Z,6.55
2023-10-27T22:26:44.129Z,7.70
2023-10-27T22:29:11.787Z,6.50
2023-10-27T22:31:40.213Z,5.93
2023-10-27T22:34:10.258Z,6.30
2023-10-27T22:36:38.309Z,6.78
2023-10-27T22:39:05.645Z,5.95
2023-10-27T22:41:32.936Z,7.07
2023-10-27T22:44:00.593Z,7.20
2023-10-27T22:46:28.366Z,8.15
2023-10-27T22:48:55.732Z,7.28
2023-10-27T22:51:22.704Z,7.05
2023-10-27T22:53:49.649Z,6.95
2023-10-27T22:56:16.768Z,6.70
2023-10-27T22:58:43.759Z,7.50
2023-10-27T23:01:14.606Z,7.00
2023-10-27T23:03:41.855Z,6.15
2023-10-27T23:06:10.066Z,6.10
2023-10-27T23:08:37.613Z,6.63
2023-10-27T23:11:09.852Z,5.50
2023-10-27T23:16:06.816Z,5.72
2023-10-27T23:18:34.935Z,5.40
2023-10-27T23:21:09.275Z,5.30
2023-10-27T23:23:42.390Z,4.97
2023-10-27T23:26:10.417Z,5.25
2023-10-27T23:28:37.899Z,5.20
2023-10-27T23:31:06.313Z,4.57
2023-10-27T23:33:33.451Z,5.05
2023-10-27T23:36:01.542Z,4.88
2023-10-27T23:38:32.448Z,4.90
2023-10-27T23:41:06.583Z,4.95
2023-10-27T23:43:34.002Z,4.55
2023-10-27T23:46:12.266Z,4.22
2023-10-27T23:48:39.704Z,4.13
2023-10-27T23:51:08.332Z,4.65
2023-10-27T23:53:35.679Z,4.85
2023-10-27T23:56:02.995Z,4.93
2023-10-27T23:58:30.663Z,5.18
